• Join FlightAware (Why Join?)
  • Login
  • US Flag 
10:12AM EDT


 

Airport Tracker/Info


-or-


 

Live Flight TrackerFlight Track Log ✈ SWA3621 ✈ 05-Jan-2013 ✈ KHOU - KTPA

Flight Track Log - Related Links

Times and Time Zones

All times are in EST time to prevent confusion due to time zone crossing. See the SWA3621 flight status page for this flight to view local times or setup timezone preferences in your user account.

Time Position Orientation Groundspeed Altitude Reporting Facility
EST Latitude Longitude Course Direction KTS MPH feet Rate Location/Type
08:16PM 29.6325 -95.2694 148° Southeast 145 167 800  Level Houston Center
08:17PM 29.5544 -95.2144 148° Southeast 278 320 4,400 2,940 Climbing Houston Center
08:19PM 29.5333 -95.0681 99° East 306 352 10,600 3,120 Climbing Houston Center
08:20PM 29.5611 -94.9592 74° East 323 372 13,300 3,060 Climbing Houston Center
08:21PM 29.5867 -94.8406 76° East 356 410 16,800 3,000 Climbing Houston Center
08:22PM 29.5667 -94.7156 100° East 377 434 19,300 2,580 Climbing Houston Center
08:23PM 29.5486 -94.5814 99° East 397 457 22,000 2,460 Climbing Houston Center
08:24PM 29.5308 -94.4378 98° East 431 496 24,300 2,400 Climbing Houston Center
08:25PM 29.5108 -94.2917 99° East 448 516 26,800 2,460 Climbing Houston Center
08:26PM 29.4908 -94.1383 98° East 459 528 29,300 2,100 Climbing Houston Center
08:27PM 29.4744 -93.9994 98° East 465 535 31,100 1,920 Climbing Houston Center
08:28PM 29.4519 -93.8489 100° East 470 541 33,200 2,280 Climbing Houston Center
08:29PM 29.4311 -93.7028 99° East 470 541 35,700 1,860 Climbing Houston Center
08:30PM 29.4122 -93.5617 99° East 465 535 37,000 1,020 Climbing Houston Center
08:31PM 29.3914 -93.4111 99° East 465 535 37,800 780 Climbing Houston Center
08:32PM 29.3703 -93.2606 99° East 465 535 38,600 600 Climbing Houston Center
08:33PM 29.3489 -93.1103 99° East 470 541 39,000 180 Climbing Houston Center
08:34PM 29.3275 -92.9575 99° East 470 541 39,000  Level Houston Center
08:35PM 29.3058 -92.8022 99° East 477 549 39,000  Level Houston Center
08:36PM 29.2861 -92.6519 99° East 477 549 39,000  Level Houston Center
08:37PM 29.2642 -92.5017 99° East 482 555 39,000  Level Houston Center
08:38PM 29.2400 -92.3517 100° East 482 555 39,000  Level Houston Center
08:39PM 29.2178 -92.1992 99° East 487 560 39,000  Level Houston Center
08:40PM 29.1953 -92.0467 100° East 487 560 39,000  Level Houston Center
08:41PM 29.1728 -91.8967 100° East 487 560 39,000  Level Houston Center
08:42PM 29.1497 -91.7394 99° East 487 560 39,000  Level Houston Center
08:43PM 29.1247 -91.5778 100° East 492 566 39,000  Level Houston Center
08:44PM 29.1017 -91.4208 100° East 503 579 39,000  Level Houston Center
08:45PM 29.0783 -91.2642 100° East 503 579 39,000  Level Houston Center
08:46PM 29.0528 -91.1050 100° East 503 579 39,000  Level Houston Center
08:47PM 29.0269 -90.9458 100° East 503 579 39,000  Level Houston Center
08:48PM 29.0008 -90.7917 101° East 503 579 39,000 480 Level Houston Center
08:49PM 28.9789 -90.6397 99° East 496 571 40,000 780 Climbing Houston Center
08:50PM 28.9525 -90.4786 101° East 502 578 40,600 480 Climbing Houston Center
08:51PM 28.9261 -90.3222 101° East 502 578 41,000 180 Climbing Houston Center
08:52PM 28.9014 -90.1658 100° East 502 578 41,000  Level Houston Center
08:53PM 28.8767 -90.0072 100° East 502 578 41,000  Level Houston Center
08:54PM 28.8497 -89.8536 101° East 507 583 41,000  Level Houston Center
08:55PM 28.8225 -89.6928 101° East 500 575 41,000  Level Houston Center
08:56PM 28.7972 -89.5392 101° East 505 581 41,000  Level Houston Center
08:57PM 28.7697 -89.3856 102° East 505 581 41,000  Level Houston Center
08:58PM 28.7439 -89.2272 101° East 500 575 41,000  Level Houston Center
08:59PM 28.7161 -89.0764 102° East 500 575 41,000  Level Houston Center
09:01PM 28.6536 -88.7278 101° East 507 583 41,000  Level Jacksonville Center
09:02PM 28.6272 -88.5750 101° East 502 578 41,000  Level Jacksonville Center
09:03PM 28.5986 -88.4150 101° East 502 578 41,000  Level Jacksonville Center
09:04PM 28.5719 -88.2578 101° East 502 578 41,000  Level Jacksonville Center
09:05PM 28.5450 -88.1028 101° East 502 578 41,000  Level Jacksonville Center
09:06PM 28.5200 -87.9456 100° East 502 578 41,000  Level Jacksonville Center
09:07PM 28.5033 -87.7842 97° East 509 586 41,000  Level Jacksonville Center
09:08PM 28.4908 -87.6206 95° East 493 567 41,000  Level Jacksonville Center
09:09PM 28.4714 -87.4617 98° East 498 573 41,000  Level Jacksonville Center
09:10PM 28.4542 -87.3025 97° East 503 579 41,000  Level Jacksonville Center
09:11PM 28.4364 -87.1461 97° East 503 579 41,000  Level Jacksonville Center
09:12PM 28.4164 -86.9894 98° East 503 579 41,000  Level Jacksonville Center
09:13PM 28.3983 -86.8331 97° East 503 579 41,000  Level Jacksonville Center
09:14PM 28.3803 -86.6744 97° East 503 579 41,000  Level Jacksonville Center
09:15PM 28.3636 -86.5250 97° East 497 572 41,000  Level Jacksonville Center
09:16PM 28.3431 -86.3664 98° East 502 578 41,000  Level Jacksonville Center
09:17PM 28.3239 -86.2194 98° East 513 590 41,000  Level Jacksonville Center
09:18PM 28.3050 -86.0633 98° East 513 590 41,000 -180 Level Jacksonville Center
09:19PM 28.2836 -85.9047 99° East 506 582 40,700 -660 Descending Jacksonville Center
09:20PM 28.2642 -85.7486 98° East 501 577 39,700 -960 Descending Jacksonville Center
09:21PM 28.2447 -85.5950 98° East 499 574 38,800 -900 Descending Jacksonville Center
09:22PM 28.2250 -85.4367 98° East 499 574 37,900 -960 Descending Jacksonville Center
09:23PM 28.2050 -85.2808 98° East 499 574 36,900 -960 Descending Jacksonville Center
09:26PM 28.1575 -84.9189 98° East 486 559 34,800 -960 Descending Miami Center
09:27PM 28.1389 -84.7669 98° East 492 566 33,800 -960 Descending Miami Center
09:28PM 28.1219 -84.6200 97° East 478 550 32,900 -600 Descending Miami Center
09:29PM 28.0972 -84.4608 100° East 490 564 32,700 -1,620 Descending Miami Center
09:30PM 28.0739 -84.3067 100° East 490 564 29,800 -2,640 Descending Miami Center
09:31PM 28.0544 -84.1597 98° East 485 558 27,400 -2,400 Descending Miami Center
09:32PM 28.0306 -84.0147 101° East 477 549 25,000 -2,400 Descending Miami Center
09:33PM 28.0122 -83.8797 99° East 454 522 22,700 -1,980 Descending Miami Center
09:34PM 27.9958 -83.7447 98° East 440 506 21,100 -1,860 Descending Miami Center
09:35PM 27.9731 -83.6094 101° East 435 501 19,000 -2,220 Descending Miami Center
09:36PM 27.9561 -83.4769 98° East 430 495 16,700 -2,640 Descending Miami Center
09:37PM 27.9369 -83.3492 100° East 425 489 13,900 -2,700 Descending Miami Center
09:38PM 27.9217 -83.2286 98° East 411 473 11,300 -1,920 Descending Miami Center
09:39PM 27.9308 -83.1139 85° East 392 451 10,000 -840 Descending Miami Center
09:40PM 27.9744 -83.0225 62° Northeast 339 390 9,700 -600 Descending Miami Center
09:41PM 28.0336 -82.9528 46° Northeast 308 354 8,900 -840 Descending Miami Center
09:42PM 28.0928 -82.8856 45° Northeast 301 346 8,000 -1,380 Descending Miami Center
09:42PM 28.1333 -82.8333 49° Northeast 297 342 6,800 -1,680 Descending Tampa TRACON
09:43PM 28.1000 -82.7500 114° Southeast 270 311 5,300 -900 Descending Tampa TRACON
09:44PM 28.0500 -82.6833 130° Southeast 260 299 5,000 -180 Descending Tampa TRACON
09:45PM 28.0167 -82.6333 127° Southeast 262 302 5,000 -240 Level Tampa TRACON
09:46PM 27.9500 -82.6167 168° South 213 245 4,600 -720 Descending Tampa TRACON
09:47PM 27.8833 -82.6167 180° South 209 241 3,600 -900 Descending Tampa TRACON
09:48PM 27.8667 -82.5833 119° Southeast 194 223 2,900 -900 Descending Tampa TRACON
09:49PM 27.8833 -82.5500 60° Northeast 155 178 1,900 -1,080 Descending Tampa TRACON
09:50PM 27.9333 -82.5500 360° North 142 163 700 -1,140 Descending Tampa TRACON
09:52PM 27.9667 -82.5167 19° North  Level FlightAware Approximate
09:59PM 27.9755 -82.5332 19° North  Level Estimated
10:00PM 27.9755 -82.5332 19° North  Level Estimated
10:01PM 27.9755 -82.5332 19° North  Level Estimated